createdAt,value
2022-12-16T00:01:19.268Z,-5.93
2022-12-16T00:03:48.127Z,-5.89
2022-12-16T00:06:16.064Z,-5.88
2022-12-16T00:08:44.176Z,-5.87
2022-12-16T00:11:11.885Z,-5.84
2022-12-16T00:13:42.900Z,-5.81
2022-12-16T00:16:13.088Z,-5.80
2022-12-16T00:18:41.167Z,-5.78
2022-12-16T00:21:09.326Z,-5.77
2022-12-16T00:23:44.503Z,-5.71
2022-12-16T00:26:13.275Z,-5.67
2022-12-16T00:28:41.239Z,-5.62
2022-12-16T00:31:08.825Z,-5.58
2022-12-16T00:33:36.772Z,-5.49
2022-12-16T00:36:04.746Z,-5.50
2022-12-16T00:38:32.317Z,-5.49
2022-12-16T00:41:00.266Z,-5.49
2022-12-16T00:43:27.737Z,-5.49
2022-12-16T00:45:55.247Z,-5.47
2022-12-16T00:48:23.389Z,-5.49
2022-12-16T00:50:55.084Z,-5.49
2022-12-16T00:53:25.029Z,-5.51
2022-12-16T00:56:04.218Z,-5.58
2022-12-16T00:58:31.869Z,-5.56
2022-12-16T01:00:59.373Z,-5.58
2022-12-16T01:03:27.063Z,-5.64
2022-12-16T01:05:54.646Z,-5.69
2022-12-16T01:08:23.136Z,-5.69
2022-12-16T01:10:55.581Z,-5.71
2022-12-16T01:13:24.828Z,-5.73
2022-12-16T01:15:52.492Z,-5.72
2022-12-16T01:18:20.045Z,-5.72
2022-12-16T01:20:47.558Z,-5.76
2022-12-16T01:23:15.096Z,-5.73
2022-12-16T01:25:42.616Z,-5.72
2022-12-16T01:28:10.372Z,-5.69
2022-12-16T01:30:37.787Z,-5.69
2022-12-16T01:33:05.333Z,-5.68
2022-12-16T01:38:20.212Z,-5.74
2022-12-16T01:40:47.656Z,-5.71
2022-12-16T01:43:15.886Z,-5.78
2022-12-16T01:45:43.442Z,-5.79
2022-12-16T01:48:19.778Z,-5.78
2022-12-16T01:50:48.535Z,-5.72
2022-12-16T01:53:16.622Z,-5.72
2022-12-16T01:55:50.482Z,-5.70
2022-12-16T01:58:26.058Z,-5.68
2022-12-16T02:00:54.603Z,-5.66
2022-12-16T02:03:23.054Z,-5.65
2022-12-16T02:05:51.386Z,-5.70
2022-12-16T02:08:20.636Z,-5.66
2022-12-16T02:11:21.929Z,-5.63
2022-12-16T02:14:09.681Z,-5.60
2022-12-16T02:16:37.226Z,-5.63
2022-12-16T02:19:49.012Z,-5.58
2022-12-16T02:22:41.368Z,-5.54
2022-12-16T02:25:20.919Z,-5.53
2022-12-16T02:27:59.317Z,-5.55
2022-12-16T02:30:32.875Z,-5.51
2022-12-16T02:33:23.702Z,-5.54
2022-12-16T02:36:13.566Z,-5.53
2022-12-16T02:38:57.007Z,-5.54
2022-12-16T02:41:27.280Z,-5.46
2022-12-16T02:44:09.947Z,-5.50
2022-12-16T02:46:43.361Z,-5.50
2022-12-16T02:49:13.764Z,-5.48
2022-12-16T02:51:41.702Z,-5.49
2022-12-16T02:54:10.298Z,-5.48
2022-12-16T02:56:46.678Z,-5.42
2022-12-16T02:59:48.052Z,-5.44
2022-12-16T03:02:37.578Z,-5.37
2022-12-16T03:05:42.819Z,-5.31
2022-12-16T03:08:34.212Z,-5.32
2022-12-16T03:11:04.537Z,-5.32
2022-12-16T03:13:46.354Z,-5.30
2022-12-16T03:16:18.971Z,-5.27
2022-12-16T03:18:52.526Z,-5.22
2022-12-16T03:21:29.291Z,-5.20
2022-12-16T03:24:03.083Z,-5.23
2022-12-16T03:26:44.931Z,-5.25
2022-12-16T03:29:42.298Z,-5.21
2022-12-16T03:32:20.038Z,-5.21
2022-12-16T03:35:02.563Z,-5.15
2022-12-16T03:37:34.125Z,-5.09
2022-12-16T03:40:06.086Z,-5.10
2022-12-16T03:42:35.305Z,-5.14
2022-12-16T03:45:04.283Z,-5.16
2022-12-16T03:47:31.805Z,-5.17
2022-12-16T03:49:59.274Z,-5.21
2022-12-16T03:52:26.701Z,-5.23
2022-12-16T03:54:54.135Z,-5.26
2022-12-16T03:57:21.606Z,-5.26
2022-12-16T03:59:49.075Z,-5.24
2022-12-16T04:02:16.647Z,-5.22
2022-12-16T04:04:44.182Z,-5.26
2022-12-16T04:07:21.050Z,-5.25
2022-12-16T04:09:49.566Z,-5.28
2022-12-16T04:12:35.923Z,-5.30
2022-12-16T04:15:23.775Z,-5.31
2022-12-16T04:18:10.146Z,-5.32
2022-12-16T04:21:03.531Z,-5.38
2022-12-16T04:23:53.527Z,-5.36
2022-12-16T04:26:22.270Z,-5.33
2022-12-16T04:28:50.069Z,-5.31
2022-12-16T04:31:17.703Z,-5.29
2022-12-16T04:34:04.140Z,-5.29
2022-12-16T04:36:50.390Z,-5.28
2022-12-16T04:39:36.643Z,-5.31
2022-12-16T04:42:22.974Z,-5.26
2022-12-16T04:45:09.184Z,-5.30
2022-12-16T04:47:57.454Z,-5.28
2022-12-16T04:51:01.197Z,-5.31
2022-12-16T04:53:47.300Z,-5.27
2022-12-16T04:56:44.074Z,-5.21
2022-12-16T04:59:30.328Z,-5.21
2022-12-16T05:06:29.646Z,-5.19
2022-12-16T05:09:15.939Z,-5.19
2022-12-16T05:12:02.207Z,-5.14
2022-12-16T05:14:48.386Z,-5.10
2022-12-16T05:17:34.632Z,-5.08
2022-12-16T05:20:20.896Z,-5.05
2022-12-16T05:23:07.196Z,-5.09
2022-12-16T05:25:53.687Z,-5.11
2022-12-16T05:28:39.937Z,-5.06
2022-12-16T05:31:26.275Z,-5.12
2022-12-16T05:34:12.365Z,-5.10
2022-12-16T05:36:58.516Z,-5.08
2022-12-16T05:39:44.792Z,-5.09
2022-12-16T05:42:31.034Z,-5.07
2022-12-16T05:45:17.245Z,-5.08
2022-12-16T05:48:07.086Z,-5.09
2022-12-16T05:50:53.396Z,-5.09
2022-12-16T05:53:42.023Z,-5.12
2022-12-16T05:56:28.626Z,-5.17
2022-12-16T05:59:14.947Z,-5.11
2022-12-16T06:02:01.176Z,-5.14
2022-12-16T06:04:47.307Z,-5.04
2022-12-16T06:07:33.734Z,-5.03
2022-12-16T06:10:19.831Z,-4.99
2022-12-16T06:13:06.574Z,-5.04
2022-12-16T06:15:53.119Z,-5.10
2022-12-16T06:18:39.236Z,-5.14
2022-12-16T06:21:25.487Z,-5.20
2022-12-16T06:24:11.897Z,-5.20
2022-12-16T06:26:57.871Z,-5.23
2022-12-16T06:29:44.153Z,-5.24
2022-12-16T06:32:30.487Z,-5.27
2022-12-16T06:35:16.816Z,-5.21
2022-12-16T06:38:06.479Z,-5.21
2022-12-16T06:40:53.376Z,-5.21
2022-12-16T06:43:41.008Z,-5.20
2022-12-16T06:46:27.381Z,-5.19
2022-12-16T06:49:13.482Z,-5.18
2022-12-16T06:51:59.708Z,-5.22
2022-12-16T06:54:46.021Z,-5.23
2022-12-16T06:57:32.477Z,-5.27
2022-12-16T07:00:18.704Z,-5.27
2022-12-16T07:03:05.142Z,-5.28
2022-12-16T07:05:51.297Z,-5.27
2022-12-16T07:08:37.532Z,-5.25
2022-12-16T07:11:23.965Z,-5.20
2022-12-16T07:14:10.305Z,-5.25
2022-12-16T07:16:56.509Z,-5.19
2022-12-16T07:19:42.547Z,-5.13
2022-12-16T07:22:28.842Z,-5.11
2022-12-16T07:25:15.095Z,-5.10
2022-12-16T07:28:04.846Z,-5.09
2022-12-16T07:30:51.533Z,-5.09
2022-12-16T07:33:37.827Z,-5.09
2022-12-16T07:36:24.056Z,-5.07
2022-12-16T07:39:10.347Z,-4.97
2022-12-16T07:41:56.668Z,-4.97
2022-12-16T07:44:42.818Z,-4.99
2022-12-16T07:47:28.988Z,-4.99
2022-12-16T07:50:15.086Z,-4.99
2022-12-16T07:53:01.360Z,-4.96
2022-12-16T07:55:47.475Z,-4.91
2022-12-16T07:58:34.017Z,-4.90
2022-12-16T08:01:20.543Z,-4.81
2022-12-16T08:04:06.479Z,-4.77
2022-12-16T08:06:52.828Z,-4.72
2022-12-16T08:09:39.297Z,-4.72
2022-12-16T08:12:25.507Z,-4.69
2022-12-16T08:15:11.953Z,-4.76
2022-12-16T08:18:06.242Z,-4.69
2022-12-16T08:20:52.544Z,-4.61
2022-12-16T08:23:41.862Z,-4.57
2022-12-16T08:26:28.166Z,-4.47
2022-12-16T08:29:42.672Z,-4.37
2022-12-16T08:32:20.803Z,-4.25
2022-12-16T08:35:06.789Z,-4.15
2022-12-16T08:37:53.156Z,-4.06
2022-12-16T08:40:39.417Z,-4.10
2022-12-16T08:43:39.339Z,-4.11
2022-12-16T08:46:25.741Z,-4.06
2022-12-16T08:49:11.868Z,-3.98
2022-12-16T08:51:58.096Z,-3.99
2022-12-16T08:54:44.195Z,-3.95
2022-12-16T08:57:30.376Z,-3.79
2022-12-16T09:00:16.788Z,-3.75
2022-12-16T09:03:03.412Z,-3.65
2022-12-16T09:05:49.777Z,-3.52
2022-12-16T09:08:36.957Z,-3.38
2022-12-16T09:11:23.285Z,-3.28
2022-12-16T09:14:09.567Z,-3.26
2022-12-16T09:16:55.737Z,-3.14
2022-12-16T09:19:42.080Z,-2.94
2022-12-16T09:22:28.415Z,-2.92
2022-12-16T09:25:14.625Z,-2.93
2022-12-16T09:28:00.984Z,-2.98
2022-12-16T09:30:47.324Z,-3.11
2022-12-16T09:33:33.794Z,-3.21
2022-12-16T09:36:20.196Z,-3.46
2022-12-16T09:39:06.227Z,-3.46
2022-12-16T09:42:00.390Z,-3.53
2022-12-16T09:44:46.036Z,-3.49
2022-12-16T09:47:42.286Z,-3.65
2022-12-16T09:50:43.353Z,-3.61
2022-12-16T09:53:33.161Z,-3.61
2022-12-16T09:56:21.926Z,-3.63
2022-12-16T09:59:16.734Z,-3.72
2022-12-16T10:02:03.606Z,-3.73
2022-12-16T10:04:49.848Z,-3.97
2022-12-16T10:07:40.280Z,-3.77
2022-12-16T10:10:45.287Z,-3.90
2022-12-16T10:13:48.927Z,-3.85
2022-12-16T10:16:53.745Z,-3.87
2022-12-16T10:20:25.049Z,-3.69
2022-12-16T10:23:22.298Z,-3.57
2022-12-16T10:26:57.757Z,-3.51
2022-12-16T10:29:48.999Z,-3.52
2022-12-16T10:32:34.759Z,-3.69
2022-12-16T10:35:21.888Z,-3.57
2022-12-16T10:38:08.197Z,-3.39
2022-12-16T10:40:54.747Z,-3.38
2022-12-16T10:43:55.479Z,-3.69
2022-12-16T10:46:46.873Z,-3.42
2022-12-16T10:49:35.139Z,-3.47
2022-12-16T10:52:21.007Z,-3.56
2022-12-16T10:55:44.607Z,-3.33
2022-12-16T10:59:00.027Z,-3.29
2022-12-16T11:01:47.501Z,-3.42
2022-12-16T11:04:48.938Z,-3.54
2022-12-16T11:08:04.307Z,-3.38
2022-12-16T11:10:59.269Z,-2.99
2022-12-16T11:13:54.132Z,-2.74
2022-12-16T11:16:48.080Z,-2.97
2022-12-16T11:19:48.218Z,-2.96
2022-12-16T11:22:38.215Z,-3.19
2022-12-16T11:25:40.228Z,-3.37
2022-12-16T11:28:33.074Z,-3.07
2022-12-16T11:31:24.765Z,-2.86
2022-12-16T11:34:13.056Z,-2.59
2022-12-16T11:37:00.818Z,-2.70
2022-12-16T11:39:54.259Z,-3.14
2022-12-16T11:42:46.509Z,-3.00
2022-12-16T11:45:39.495Z,-2.83
2022-12-16T11:48:40.596Z,-2.75
2022-12-16T11:51:34.003Z,-2.90
2022-12-16T11:54:40.976Z,-2.98
2022-12-16T11:57:38.272Z,-2.93
2022-12-16T12:00:25.656Z,-3.06
2022-12-16T12:03:24.468Z,-2.93
2022-12-16T12:06:44.815Z,-2.75
2022-12-16T12:09:39.149Z,-2.66
2022-12-16T12:12:54.947Z,-2.72
2022-12-16T12:16:18.224Z,-2.69
2022-12-16T12:19:22.375Z,-2.70
2022-12-16T12:22:21.392Z,-2.67
2022-12-16T12:25:13.326Z,-2.66
2022-12-16T12:28:28.052Z,-2.72
2022-12-16T12:31:30.768Z,-2.63
2022-12-16T12:34:21.746Z,-2.54
2022-12-16T12:37:18.175Z,-2.56
2022-12-16T12:40:19.547Z,-2.55
2022-12-16T12:43:13.377Z,-2.49
2022-12-16T12:46:54.322Z,-2.58
2022-12-16T12:50:01.817Z,-2.61
2022-12-16T12:53:24.335Z,-2.75
2022-12-16T12:56:13.117Z,-2.81
2022-12-16T12:59:00.897Z,-2.89
2022-12-16T13:01:51.457Z,-2.97
2022-12-16T13:04:41.727Z,-3.06
2022-12-16T13:07:28.386Z,-3.08
2022-12-16T13:10:43.556Z,-3.17
2022-12-16T13:13:49.848Z,-3.22
2022-12-16T13:17:17.983Z,-3.32
2022-12-16T13:20:13.133Z,-3.38
2022-12-16T13:22:59.411Z,-3.40
2022-12-16T13:25:59.355Z,-3.44
2022-12-16T13:29:00.990Z,-3.51
2022-12-16T13:31:49.081Z,-3.60
2022-12-16T13:34:35.051Z,-3.73
2022-12-16T13:37:31.001Z,-3.78
2022-12-16T13:40:44.828Z,-3.69
2022-12-16T13:44:11.912Z,-3.78
2022-12-16T13:47:06.768Z,-3.77
2022-12-16T13:49:55.491Z,-3.85
2022-12-16T13:52:46.856Z,-3.87
2022-12-16T13:55:38.048Z,-4.00
2022-12-16T13:58:35.838Z,-4.04
2022-12-16T14:01:29.298Z,-4.09
2022-12-16T14:04:18.652Z,-4.04
2022-12-16T14:07:05.337Z,-4.08
2022-12-16T14:09:57.188Z,-4.14
2022-12-16T14:13:11.054Z,-4.19
2022-12-16T14:16:15.791Z,-4.17
2022-12-16T14:19:23.806Z,-4.25
2022-12-16T14:22:49.757Z,-4.24
2022-12-16T14:25:39.092Z,-4.41
2022-12-16T14:28:45.988Z,-4.50
2022-12-16T14:31:40.520Z,-4.52
2022-12-16T14:34:43.417Z,-4.53
2022-12-16T14:37:33.207Z,-4.72
2022-12-16T14:40:19.477Z,-4.68
2022-12-16T14:43:12.887Z,-4.73
2022-12-16T14:46:08.273Z,-4.75
2022-12-16T14:48:57.343Z,-4.75
2022-12-16T14:51:48.298Z,-4.79
2022-12-16T14:55:04.655Z,-4.85
2022-12-16T14:57:52.815Z,-4.80
2022-12-16T15:00:41.667Z,-4.85
2022-12-16T15:03:56.684Z,-4.88
2022-12-16T15:06:56.501Z,-4.85
2022-12-16T15:09:51.346Z,-4.87
2022-12-16T15:12:40.099Z,-4.95
2022-12-16T15:15:33.787Z,-4.98
2022-12-16T15:18:21.495Z,-5.00
2022-12-16T15:21:13.572Z,-5.08
2022-12-16T15:24:02.357Z,-4.99
2022-12-16T15:26:50.512Z,-5.07
2022-12-16T15:30:02.581Z,-5.10
2022-12-16T15:33:13.722Z,-5.09
2022-12-16T15:35:59.872Z,-5.11
2022-12-16T15:38:49.606Z,-5.15
2022-12-16T15:41:56.130Z,-5.14
2022-12-16T15:44:44.870Z,-5.09
2022-12-16T15:47:47.501Z,-5.07
2022-12-16T15:50:35.145Z,-5.10
2022-12-16T15:53:54.565Z,-5.16
2022-12-16T15:56:43.706Z,-5.23
2022-12-16T15:59:42.508Z,-5.28
2022-12-16T16:02:45.276Z,-5.26
2022-12-16T16:05:39.916Z,-5.28
2022-12-16T16:08:28.733Z,-5.23
2022-12-16T16:11:14.986Z,-5.27
2022-12-16T16:14:07.276Z,-5.27
2022-12-16T16:17:03.759Z,-5.31
2022-12-16T16:19:50.201Z,-5.34
2022-12-16T16:22:37.378Z,-5.30
2022-12-16T16:25:24.192Z,-5.30
2022-12-16T16:28:10.412Z,-5.33
2022-12-16T16:30:56.675Z,-5.34
2022-12-16T16:33:42.847Z,-5.35
2022-12-16T16:36:33.947Z,-5.35
2022-12-16T16:39:20.234Z,-5.44
2022-12-16T16:42:06.445Z,-5.40
2022-12-16T16:44:52.447Z,-5.43
2022-12-16T16:47:49.449Z,-5.42
2022-12-16T16:50:35.686Z,-5.41
2022-12-16T16:53:21.816Z,-5.42
2022-12-16T16:56:18.129Z,-5.50
2022-12-16T16:59:06.215Z,-5.45
2022-12-16T17:01:52.530Z,-5.47
2022-12-16T17:04:38.617Z,-5.45
2022-12-16T17:07:24.675Z,-5.49
2022-12-16T17:10:10.988Z,-5.46
2022-12-16T17:13:04.448Z,-5.48
2022-12-16T17:15:53.059Z,-5.50
2022-12-16T17:18:44.639Z,-5.53
2022-12-16T17:21:32.827Z,-5.44
2022-12-16T17:24:19.096Z,-5.50
2022-12-16T17:27:05.186Z,-5.52
2022-12-16T17:29:51.502Z,-5.55
2022-12-16T17:32:37.716Z,-5.49
2022-12-16T17:35:24.169Z,-5.50
2022-12-16T17:38:10.456Z,-5.57
2022-12-16T17:40:56.753Z,-5.58
2022-12-16T17:43:43.095Z,-5.61
2022-12-16T17:46:30.383Z,-5.63
2022-12-16T17:49:17.355Z,-5.66
2022-12-16T17:52:03.672Z,-5.64
2022-12-16T17:54:49.864Z,-5.59
2022-12-16T17:57:52.898Z,-5.60
2022-12-16T18:00:39.066Z,-5.58
2022-12-16T18:03:25.379Z,-5.54
2022-12-16T18:06:15.812Z,-5.58
2022-12-16T18:09:02.139Z,-5.58
2022-12-16T18:11:48.369Z,-5.61
2022-12-16T18:14:42.134Z,-5.59
2022-12-16T18:17:28.475Z,-5.54
2022-12-16T18:20:14.626Z,-5.57
2022-12-16T18:23:00.846Z,-5.64
2022-12-16T18:25:46.905Z,-5.65
2022-12-16T18:28:33.215Z,-5.59
2022-12-16T18:31:24.285Z,-5.54
2022-12-16T18:34:10.567Z,-5.54
2022-12-16T18:36:56.686Z,-5.51
2022-12-16T18:39:43.118Z,-5.51
2022-12-16T18:42:29.262Z,-5.54
2022-12-16T18:45:15.463Z,-5.55
2022-12-16T18:48:01.686Z,-5.58
2022-12-16T18:50:47.885Z,-5.58
2022-12-16T18:53:34.410Z,-5.60
2022-12-16T18:56:23.092Z,-5.67
2022-12-16T18:59:09.282Z,-5.69
2022-12-16T19:01:55.785Z,-5.68
2022-12-16T19:04:41.978Z,-5.66
2022-12-16T19:07:31.700Z,-5.63
2022-12-16T19:10:19.475Z,-5.68
2022-12-16T19:13:05.817Z,-5.62
2022-12-16T19:15:53.586Z,-5.65
2022-12-16T19:18:39.706Z,-5.55
2022-12-16T19:21:26.186Z,-5.58
2022-12-16T19:24:12.505Z,-5.62
2022-12-16T19:26:58.426Z,-5.62
2022-12-16T19:29:44.678Z,-5.63
2022-12-16T19:32:31.112Z,-5.59
2022-12-16T19:35:17.034Z,-5.58
2022-12-16T19:38:03.469Z,-5.57
2022-12-16T19:40:49.660Z,-5.57
2022-12-16T19:43:35.932Z,-5.53
2022-12-16T19:46:22.474Z,-5.53
2022-12-16T19:49:09.059Z,-5.53
2022-12-16T19:55:01.489Z,-5.47
2022-12-16T19:57:47.627Z,-5.49
2022-12-16T20:00:33.782Z,-5.48
2022-12-16T20:03:20.116Z,-5.49
2022-12-16T20:06:06.496Z,-5.48
2022-12-16T20:08:52.638Z,-5.47
2022-12-16T20:11:40.787Z,-5.45
2022-12-16T20:14:27.021Z,-5.38
2022-12-16T20:17:13.147Z,-5.37
2022-12-16T20:19:59.490Z,-5.39
2022-12-16T20:22:45.803Z,-5.39
2022-12-16T20:25:32.032Z,-5.37
2022-12-16T20:28:24.605Z,-5.38
2022-12-16T20:31:11.033Z,-5.38
2022-12-16T20:37:03.435Z,-5.42
2022-12-16T20:39:56.333Z,-5.34
2022-12-16T20:42:55.627Z,-5.35
2022-12-16T20:45:42.512Z,-5.40
2022-12-16T20:48:33.206Z,-5.40
2022-12-16T20:54:29.634Z,-5.42
2022-12-16T20:57:15.936Z,-5.46
2022-12-16T21:00:02.395Z,-5.47
2022-12-16T21:02:48.454Z,-5.47
2022-12-16T21:05:34.527Z,-5.48
2022-12-16T21:08:20.914Z,-5.50
2022-12-16T21:11:07.157Z,-5.49
2022-12-16T21:13:56.428Z,-5.50
2022-12-16T21:16:42.755Z,-5.47
2022-12-16T21:19:33.312Z,-5.44
2022-12-16T21:22:20.435Z,-5.46
2022-12-16T21:25:06.786Z,-5.46
2022-12-16T21:27:53.071Z,-5.42
2022-12-16T21:30:41.635Z,-5.46
2022-12-16T21:33:35.354Z,-5.47
2022-12-16T21:36:21.502Z,-5.43
2022-12-16T21:39:07.817Z,-5.40
2022-12-16T21:41:54.132Z,-5.43
2022-12-16T21:44:42.515Z,-5.44
2022-12-16T21:47:29.057Z,-5.43
2022-12-16T21:50:15.290Z,-5.43
2022-12-16T21:53:01.388Z,-5.44
2022-12-16T21:55:47.717Z,-5.46
2022-12-16T21:58:33.881Z,-5.49
2022-12-16T22:01:20.088Z,-5.50
2022-12-16T22:04:06.426Z,-5.50
2022-12-16T22:06:52.612Z,-5.53
2022-12-16T22:09:39.512Z,-5.52
2022-12-16T22:12:26.160Z,-5.49
2022-12-16T22:15:12.227Z,-5.44
2022-12-16T22:17:58.905Z,-5.43
2022-12-16T22:20:45.266Z,-5.49
2022-12-16T22:23:31.256Z,-5.48
2022-12-16T22:26:19.536Z,-5.50
2022-12-16T22:29:05.795Z,-5.49
2022-12-16T22:31:52.148Z,-5.49
2022-12-16T22:34:38.504Z,-5.51
2022-12-16T22:37:24.796Z,-5.49
2022-12-16T22:40:11.025Z,-5.45
2022-12-16T22:42:57.374Z,-5.45
2022-12-16T22:45:43.576Z,-5.46
2022-12-16T22:48:30.817Z,-5.52
2022-12-16T22:51:17.005Z,-5.54
2022-12-16T22:54:03.262Z,-5.50
2022-12-16T22:56:49.544Z,-5.50
2022-12-16T22:59:35.948Z,-5.49
2022-12-16T23:02:22.126Z,-5.50
2022-12-16T23:05:08.465Z,-5.48
2022-12-16T23:07:56.045Z,-5.44
2022-12-16T23:10:42.367Z,-5.46
2022-12-16T23:13:32.176Z,-5.43
2022-12-16T23:16:18.542Z,-5.39
2022-12-16T23:19:04.639Z,-5.39
2022-12-16T23:21:50.856Z,-5.37
2022-12-16T23:24:37.087Z,-5.35
2022-12-16T23:27:23.496Z,-5.33
2022-12-16T23:30:09.783Z,-5.31
2022-12-16T23:32:56.153Z,-5.33
2022-12-16T23:35:42.648Z,-5.38
2022-12-16T23:38:28.948Z,-5.37
2022-12-16T23:41:19.297Z,-5.38
2022-12-16T23:44:05.576Z,-5.38
2022-12-16T23:46:51.814Z,-5.33
2022-12-16T23:49:39.598Z,-5.33
2022-12-16T23:52:26.052Z,-5.39
2022-12-16T23:55:12.145Z,-5.40
2022-12-16T23:57:58.544Z,-5.43
